sensor_id;sensor_type;location;lat;lon;timestamp;P1;durP1;ratioP1;P2;durP2;ratioP2
36211;SDS011;22247;48.586;13.492;2022-12-29T00:00:51;6.18;;;3.40;;
36211;SDS011;22247;48.586;13.492;2022-12-29T00:03:22;6.95;;;2.90;;
36211;SDS011;22247;48.586;13.492;2022-12-29T00:05:53;6.85;;;2.97;;
36211;SDS011;22247;48.586;13.492;2022-12-29T00:08:22;9.57;;;4.28;;
36211;SDS011;22247;48.586;13.492;2022-12-29T00:11:04;9.33;;;3.90;;
36211;SDS011;22247;48.586;13.492;2022-12-29T00:13:32;8.02;;;3.58;;
36211;SDS011;22247;48.586;13.492;2022-12-29T00:16:16;6.45;;;3.58;;
36211;SDS011;22247;48.586;13.492;2022-12-29T00:18:42;7.40;;;3.35;;
36211;SDS011;22247;48.586;13.492;2022-12-29T00:21:12;9.43;;;4.57;;
36211;SDS011;22247;48.586;13.492;2022-12-29T00:23:58;8.27;;;3.80;;
36211;SDS011;22247;48.586;13.492;2022-12-29T00:27:14;8.07;;;3.53;;
36211;SDS011;22247;48.586;13.492;2022-12-29T00:29:57;10.00;;;5.28;;
36211;SDS011;22247;48.586;13.492;2022-12-29T00:32:44;9.52;;;5.65;;
36211;SDS011;22247;48.586;13.492;2022-12-29T00:35:33;12.43;;;5.10;;
36211;SDS011;22247;48.586;13.492;2022-12-29T00:38:10;9.30;;;5.50;;
36211;SDS011;22247;48.586;13.492;2022-12-29T00:40:58;10.75;;;4.35;;
36211;SDS011;22247;48.586;13.492;2022-12-29T00:43:42;9.90;;;4.43;;
36211;SDS011;22247;48.586;13.492;2022-12-29T00:46:30;7.90;;;4.38;;
36211;SDS011;22247;48.586;13.492;2022-12-29T00:48:58;9.07;;;5.17;;
36211;SDS011;22247;48.586;13.492;2022-12-29T00:51:45;9.10;;;5.25;;
36211;SDS011;22247;48.586;13.492;2022-12-29T00:54:11;14.38;;;5.93;;
36211;SDS011;22247;48.586;13.492;2022-12-29T00:56:40;10.88;;;5.47;;
36211;SDS011;22247;48.586;13.492;2022-12-29T00:59:07;9.32;;;5.82;;
36211;SDS011;22247;48.586;13.492;2022-12-29T01:01:39;10.00;;;5.93;;
36211;SDS011;22247;48.586;13.492;2022-12-29T01:04:05;12.13;;;5.95;;
36211;SDS011;22247;48.586;13.492;2022-12-29T01:06:34;13.05;;;6.00;;
36211;SDS011;22247;48.586;13.492;2022-12-29T01:09:01;10.15;;;6.03;;
36211;SDS011;22247;48.586;13.492;2022-12-29T01:11:46;8.07;;;5.43;;
36211;SDS011;22247;48.586;13.492;2022-12-29T01:14:12;9.02;;;5.63;;
36211;SDS011;22247;48.586;13.492;2022-12-29T01:16:37;12.50;;;6.10;;
36211;SDS011;22247;48.586;13.492;2022-12-29T01:19:03;13.40;;;5.75;;
36211;SDS011;22247;48.586;13.492;2022-12-29T01:21:32;14.13;;;6.07;;
36211;SDS011;22247;48.586;13.492;2022-12-29T01:23:58;11.52;;;5.85;;
36211;SDS011;22247;48.586;13.492;2022-12-29T01:26:23;12.63;;;6.35;;
36211;SDS011;22247;48.586;13.492;2022-12-29T01:28:52;7.80;;;4.50;;
36211;SDS011;22247;48.586;13.492;2022-12-29T01:31:17;10.88;;;4.93;;
36211;SDS011;22247;48.586;13.492;2022-12-29T01:33:43;12.77;;;5.05;;
36211;SDS011;22247;48.586;13.492;2022-12-29T01:36:12;8.80;;;4.20;;
36211;SDS011;22247;48.586;13.492;2022-12-29T01:38:41;8.13;;;4.43;;
36211;SDS011;22247;48.586;13.492;2022-12-29T01:41:12;10.67;;;4.53;;
36211;SDS011;22247;48.586;13.492;2022-12-29T01:43:45;8.93;;;3.85;;
36211;SDS011;22247;48.586;13.492;2022-12-29T01:46:18;9.63;;;4.68;;
36211;SDS011;22247;48.586;13.492;2022-12-29T01:48:57;7.78;;;4.05;;
36211;SDS011;22247;48.586;13.492;2022-12-29T01:51:29;8.40;;;4.18;;
36211;SDS011;22247;48.586;13.492;2022-12-29T01:53:58;9.57;;;3.50;;
36211;SDS011;22247;48.586;13.492;2022-12-29T01:56:30;8.65;;;5.43;;
36211;SDS011;22247;48.586;13.492;2022-12-29T01:58:57;8.18;;;3.75;;
36211;SDS011;22247;48.586;13.492;2022-12-29T02:01:27;8.05;;;3.97;;
36211;SDS011;22247;48.586;13.492;2022-12-29T02:03:53;6.32;;;3.22;;
36211;SDS011;22247;48.586;13.492;2022-12-29T02:06:28;4.55;;;2.80;;
36211;SDS011;22247;48.586;13.492;2022-12-29T02:08:57;6.63;;;3.63;;
36211;SDS011;22247;48.586;13.492;2022-12-29T02:11:25;5.55;;;2.88;;
36211;SDS011;22247;48.586;13.492;2022-12-29T02:13:54;5.45;;;3.00;;
36211;SDS011;22247;48.586;13.492;2022-12-29T02:19:10;5.45;;;3.00;;
36211;SDS011;22247;48.586;13.492;2022-12-29T02:40:58;8.82;;;4.18;;
36211;SDS011;22247;48.586;13.492;2022-12-29T02:43:50;5.38;;;3.97;;
36211;SDS011;22247;48.586;13.492;2022-12-29T02:51:59;6.65;;;3.75;;
36211;SDS011;22247;48.586;13.492;2022-12-29T02:54:30;7.75;;;3.90;;
36211;SDS011;22247;48.586;13.492;2022-12-29T02:57:10;6.40;;;3.67;;
36211;SDS011;22247;48.586;13.492;2022-12-29T02:59:41;5.53;;;3.33;;
36211;SDS011;22247;48.586;13.492;2022-12-29T03:02:18;6.75;;;4.03;;
36211;SDS011;22247;48.586;13.492;2022-12-29T03:04:56;6.78;;;3.55;;
36211;SDS011;22247;48.586;13.492;2022-12-29T03:16:35;7.65;;;3.60;;
36211;SDS011;22247;48.586;13.492;2022-12-29T03:19:15;10.60;;;3.97;;
36211;SDS011;22247;48.586;13.492;2022-12-29T03:24:45;6.43;;;4.25;;
36211;SDS011;22247;48.586;13.492;2022-12-29T03:27:18;7.05;;;3.50;;
36211;SDS011;22247;48.586;13.492;2022-12-29T03:29:54;5.07;;;3.08;;
36211;SDS011;22247;48.586;13.492;2022-12-29T03:32:27;5.82;;;3.58;;
36211;SDS011;22247;48.586;13.492;2022-12-29T03:34:57;6.60;;;2.67;;
36211;SDS011;22247;48.586;13.492;2022-12-29T03:37:31;7.03;;;2.55;;
36211;SDS011;22247;48.586;13.492;2022-12-29T03:40:05;8.45;;;3.78;;
36211;SDS011;22247;48.586;13.492;2022-12-29T03:42:35;7.63;;;3.97;;
36211;SDS011;22247;48.586;13.492;2022-12-29T03:45:02;8.23;;;3.45;;
36211;SDS011;22247;48.586;13.492;2022-12-29T03:47:29;7.43;;;3.63;;
36211;SDS011;22247;48.586;13.492;2022-12-29T03:49:55;7.45;;;3.75;;
36211;SDS011;22247;48.586;13.492;2022-12-29T03:52:21;6.00;;;3.15;;
36211;SDS011;22247;48.586;13.492;2022-12-29T03:54:49;6.38;;;2.58;;
36211;SDS011;22247;48.586;13.492;2022-12-29T03:57:15;5.75;;;2.97;;
36211;SDS011;22247;48.586;13.492;2022-12-29T03:59:41;11.27;;;4.20;;
36211;SDS011;22247;48.586;13.492;2022-12-29T04:02:10;4.75;;;2.97;;
36211;SDS011;22247;48.586;13.492;2022-12-29T04:04:38;5.63;;;3.40;;
36211;SDS011;22247;48.586;13.492;2022-12-29T04:07:06;5.50;;;2.90;;
36211;SDS011;22247;48.586;13.492;2022-12-29T04:09:34;7.82;;;3.47;;
36211;SDS011;22247;48.586;13.492;2022-12-29T04:11:59;12.82;;;4.30;;
36211;SDS011;22247;48.586;13.492;2022-12-29T04:14:28;10.45;;;4.47;;
36211;SDS011;22247;48.586;13.492;2022-12-29T04:16:55;12.30;;;4.15;;
36211;SDS011;22247;48.586;13.492;2022-12-29T04:19:23;10.63;;;5.50;;
36211;SDS011;22247;48.586;13.492;2022-12-29T04:21:49;9.18;;;3.75;;
36211;SDS011;22247;48.586;13.492;2022-12-29T04:24:17;8.10;;;4.13;;
36211;SDS011;22247;48.586;13.492;2022-12-29T04:26:45;13.75;;;3.67;;
36211;SDS011;22247;48.586;13.492;2022-12-29T04:29:11;8.10;;;3.95;;
36211;SDS011;22247;48.586;13.492;2022-12-29T04:31:37;12.73;;;5.35;;
36211;SDS011;22247;48.586;13.492;2022-12-29T04:34:03;11.35;;;4.57;;
36211;SDS011;22247;48.586;13.492;2022-12-29T04:36:29;8.75;;;4.28;;
36211;SDS011;22247;48.586;13.492;2022-12-29T04:38:54;9.75;;;4.35;;
36211;SDS011;22247;48.586;13.492;2022-12-29T04:41:23;8.75;;;4.18;;
36211;SDS011;22247;48.586;13.492;2022-12-29T04:43:49;7.82;;;4.20;;
36211;SDS011;22247;48.586;13.492;2022-12-29T04:46:15;6.75;;;4.07;;
36211;SDS011;22247;48.586;13.492;2022-12-29T04:48:43;7.10;;;4.05;;
36211;SDS011;22247;48.586;13.492;2022-12-29T04:51:11;8.57;;;3.92;;
36211;SDS011;22247;48.586;13.492;2022-12-29T04:53:39;6.35;;;3.70;;
36211;SDS011;22247;48.586;13.492;2022-12-29T04:56:05;8.25;;;4.10;;
36211;SDS011;22247;48.586;13.492;2022-12-29T04:58:34;8.25;;;3.97;;
36211;SDS011;22247;48.586;13.492;2022-12-29T05:01:00;7.13;;;3.80;;
36211;SDS011;22247;48.586;13.492;2022-12-29T05:03:30;5.65;;;3.55;;
36211;SDS011;22247;48.586;13.492;2022-12-29T05:05:56;6.10;;;3.20;;
36211;SDS011;22247;48.586;13.492;2022-12-29T05:08:22;6.05;;;3.20;;
36211;SDS011;22247;48.586;13.492;2022-12-29T05:10:50;7.07;;;3.25;;
36211;SDS011;22247;48.586;13.492;2022-12-29T05:13:16;8.27;;;3.88;;
36211;SDS011;22247;48.586;13.492;2022-12-29T05:15:48;5.68;;;3.78;;
36211;SDS011;22247;48.586;13.492;2022-12-29T05:18:15;7.35;;;2.95;;
36211;SDS011;22247;48.586;13.492;2022-12-29T05:20:41;6.43;;;3.42;;
36211;SDS011;22247;48.586;13.492;2022-12-29T05:23:09;6.85;;;3.35;;
36211;SDS011;22247;48.586;13.492;2022-12-29T05:25:37;6.13;;;3.35;;
36211;SDS011;22247;48.586;13.492;2022-12-29T05:28:03;7.38;;;3.67;;
36211;SDS011;22247;48.586;13.492;2022-12-29T05:30:28;7.20;;;3.28;;
36211;SDS011;22247;48.586;13.492;2022-12-29T05:32:54;5.50;;;2.72;;
36211;SDS011;22247;48.586;13.492;2022-12-29T05:35:20;5.22;;;2.97;;
36211;SDS011;22247;48.586;13.492;2022-12-29T05:37:48;9.50;;;3.88;;
36211;SDS011;22247;48.586;13.492;2022-12-29T05:40:16;5.88;;;3.10;;
36211;SDS011;22247;48.586;13.492;2022-12-29T05:42:42;7.97;;;3.90;;
36211;SDS011;22247;48.586;13.492;2022-12-29T05:45:08;8.15;;;5.35;;
36211;SDS011;22247;48.586;13.492;2022-12-29T05:47:37;7.78;;;4.00;;
36211;SDS011;22247;48.586;13.492;2022-12-29T05:50:07;9.07;;;3.80;;
36211;SDS011;22247;48.586;13.492;2022-12-29T05:52:33;6.40;;;3.80;;
36211;SDS011;22247;48.586;13.492;2022-12-29T05:54:58;6.03;;;3.72;;
36211;SDS011;22247;48.586;13.492;2022-12-29T05:57:27;7.70;;;3.63;;
36211;SDS011;22247;48.586;13.492;2022-12-29T05:59:52;8.45;;;4.03;;
36211;SDS011;22247;48.586;13.492;2022-12-29T06:02:20;7.05;;;3.45;;
36211;SDS011;22247;48.586;13.492;2022-12-29T06:04:46;8.60;;;3.75;;
36211;SDS011;22247;48.586;13.492;2022-12-29T06:07:12;8.30;;;4.90;;
36211;SDS011;22247;48.586;13.492;2022-12-29T06:09:37;5.60;;;3.30;;
36211;SDS011;22247;48.586;13.492;2022-12-29T06:12:04;7.50;;;4.35;;
36211;SDS011;22247;48.586;13.492;2022-12-29T06:14:32;7.43;;;4.63;;
36211;SDS011;22247;48.586;13.492;2022-12-29T06:17:03;8.43;;;5.07;;
36211;SDS011;22247;48.586;13.492;2022-12-29T06:19:30;10.07;;;6.30;;
36211;SDS011;22247;48.586;13.492;2022-12-29T06:21:59;10.20;;;5.15;;
36211;SDS011;22247;48.586;13.492;2022-12-29T06:24:27;9.38;;;3.85;;
36211;SDS011;22247;48.586;13.492;2022-12-29T06:26:58;5.82;;;3.95;;
36211;SDS011;22247;48.586;13.492;2022-12-29T06:29:26;8.23;;;4.15;;
36211;SDS011;22247;48.586;13.492;2022-12-29T06:31:52;9.50;;;6.07;;
36211;SDS011;22247;48.586;13.492;2022-12-29T06:34:21;11.95;;;6.15;;
36211;SDS011;22247;48.586;13.492;2022-12-29T06:36:46;14.23;;;6.93;;
36211;SDS011;22247;48.586;13.492;2022-12-29T06:39:15;10.00;;;5.45;;
36211;SDS011;22247;48.586;13.492;2022-12-29T06:41:40;10.07;;;5.72;;
36211;SDS011;22247;48.586;13.492;2022-12-29T06:44:08;14.73;;;7.82;;
36211;SDS011;22247;48.586;13.492;2022-12-29T06:46:34;10.88;;;6.10;;
36211;SDS011;22247;48.586;13.492;2022-12-29T06:49:02;10.50;;;6.50;;
36211;SDS011;22247;48.586;13.492;2022-12-29T06:51:30;12.10;;;6.10;;
36211;SDS011;22247;48.586;13.492;2022-12-29T06:53:56;8.38;;;5.00;;
36211;SDS011;22247;48.586;13.492;2022-12-29T06:56:22;10.50;;;4.88;;
36211;SDS011;22247;48.586;13.492;2022-12-29T06:58:50;10.80;;;4.93;;
36211;SDS011;22247;48.586;13.492;2022-12-29T07:01:18;7.80;;;4.10;;
36211;SDS011;22247;48.586;13.492;2022-12-29T07:03:44;8.77;;;4.35;;
36211;SDS011;22247;48.586;13.492;2022-12-29T07:06:10;11.57;;;5.43;;
36211;SDS011;22247;48.586;13.492;2022-12-29T07:08:36;7.85;;;4.72;;
36211;SDS011;22247;48.586;13.492;2022-12-29T07:11:02;11.40;;;4.82;;
36211;SDS011;22247;48.586;13.492;2022-12-29T07:13:30;8.80;;;4.68;;
36211;SDS011;22247;48.586;13.492;2022-12-29T07:15:56;8.88;;;5.68;;
36211;SDS011;22247;48.586;13.492;2022-12-29T07:18:22;11.90;;;5.03;;
36211;SDS011;22247;48.586;13.492;2022-12-29T07:20:48;8.23;;;4.38;;
36211;SDS011;22247;48.586;13.492;2022-12-29T07:23:14;8.65;;;4.45;;
36211;SDS011;22247;48.586;13.492;2022-12-29T07:25:40;7.38;;;4.45;;
36211;SDS011;22247;48.586;13.492;2022-12-29T07:28:09;8.95;;;3.53;;
36211;SDS011;22247;48.586;13.492;2022-12-29T07:30:36;8.93;;;3.67;;
36211;SDS011;22247;48.586;13.492;2022-12-29T07:33:01;9.02;;;4.60;;
36211;SDS011;22247;48.586;13.492;2022-12-29T07:35:30;11.27;;;5.68;;
36211;SDS011;22247;48.586;13.492;2022-12-29T07:37:55;12.30;;;5.80;;
36211;SDS011;22247;48.586;13.492;2022-12-29T07:40:21;11.10;;;6.70;;
36211;SDS011;22247;48.586;13.492;2022-12-29T07:42:47;14.32;;;6.75;;
36211;SDS011;22247;48.586;13.492;2022-12-29T07:45:13;12.23;;;6.95;;
36211;SDS011;22247;48.586;13.492;2022-12-29T07:47:42;13.57;;;6.60;;
36211;SDS011;22247;48.586;13.492;2022-12-29T07:50:07;7.72;;;4.05;;
36211;SDS011;22247;48.586;13.492;2022-12-29T07:52:33;6.22;;;3.72;;
36211;SDS011;22247;48.586;13.492;2022-12-29T07:54:59;6.38;;;3.55;;
36211;SDS011;22247;48.586;13.492;2022-12-29T07:57:29;5.90;;;3.53;;
36211;SDS011;22247;48.586;13.492;2022-12-29T07:59:55;4.03;;;3.28;;
36211;SDS011;22247;48.586;13.492;2022-12-29T08:02:22;6.97;;;4.05;;
36211;SDS011;22247;48.586;13.492;2022-12-29T08:04:51;5.97;;;3.67;;
36211;SDS011;22247;48.586;13.492;2022-12-29T08:07:16;6.50;;;3.70;;
36211;SDS011;22247;48.586;13.492;2022-12-29T08:09:44;10.05;;;4.22;;
36211;SDS011;22247;48.586;13.492;2022-12-29T08:12:10;8.45;;;4.40;;
36211;SDS011;22247;48.586;13.492;2022-12-29T08:14:36;6.43;;;4.28;;
36211;SDS011;22247;48.586;13.492;2022-12-29T08:29:10;8.30;;;4.80;;
36211;SDS011;22247;48.586;13.492;2022-12-29T08:31:41;7.07;;;4.35;;
36211;SDS011;22247;48.586;13.492;2022-12-29T08:34:10;9.20;;;4.72;;
36211;SDS011;22247;48.586;13.492;2022-12-29T08:36:39;10.10;;;5.78;;
36211;SDS011;22247;48.586;13.492;2022-12-29T08:39:05;11.95;;;6.03;;
36211;SDS011;22247;48.586;13.492;2022-12-29T08:41:31;7.25;;;5.38;;
36211;SDS011;22247;48.586;13.492;2022-12-29T08:43:57;8.00;;;4.70;;
36211;SDS011;22247;48.586;13.492;2022-12-29T08:46:23;7.93;;;4.40;;
36211;SDS011;22247;48.586;13.492;2022-12-29T08:48:49;12.23;;;5.43;;
36211;SDS011;22247;48.586;13.492;2022-12-29T08:51:15;7.57;;;3.97;;
36211;SDS011;22247;48.586;13.492;2022-12-29T08:53:45;9.93;;;4.72;;
36211;SDS011;22247;48.586;13.492;2022-12-29T08:56:10;8.73;;;3.67;;
36211;SDS011;22247;48.586;13.492;2022-12-29T08:58:40;8.88;;;3.63;;
36211;SDS011;22247;48.586;13.492;2022-12-29T09:01:06;7.38;;;4.50;;
36211;SDS011;22247;48.586;13.492;2022-12-29T09:03:34;6.40;;;2.88;;
36211;SDS011;22247;48.586;13.492;2022-12-29T09:06:00;8.25;;;4.13;;
36211;SDS011;22247;48.586;13.492;2022-12-29T09:08:26;10.70;;;5.15;;
36211;SDS011;22247;48.586;13.492;2022-12-29T09:10:52;8.50;;;4.57;;
36211;SDS011;22247;48.586;13.492;2022-12-29T09:13:18;9.43;;;3.90;;
36211;SDS011;22247;48.586;13.492;2022-12-29T09:15:44;8.63;;;3.97;;
36211;SDS011;22247;48.586;13.492;2022-12-29T09:18:12;8.23;;;4.70;;
36211;SDS011;22247;48.586;13.492;2022-12-29T09:20:40;15.23;;;5.20;;
36211;SDS011;22247;48.586;13.492;2022-12-29T09:23:06;7.32;;;5.03;;
36211;SDS011;22247;48.586;13.492;2022-12-29T09:25:34;10.98;;;5.18;;
36211;SDS011;22247;48.586;13.492;2022-12-29T09:28:00;6.25;;;3.83;;
36211;SDS011;22247;48.586;13.492;2022-12-29T09:30:33;9.70;;;4.85;;
36211;SDS011;22247;48.586;13.492;2022-12-29T09:32:59;7.05;;;3.33;;
36211;SDS011;22247;48.586;13.492;2022-12-29T09:35:25;6.03;;;2.83;;
36211;SDS011;22247;48.586;13.492;2022-12-29T09:37:51;8.63;;;3.25;;
36211;SDS011;22247;48.586;13.492;2022-12-29T09:40:24;5.80;;;2.42;;
36211;SDS011;22247;48.586;13.492;2022-12-29T09:45:45;5.57;;;2.20;;
36211;SDS011;22247;48.586;13.492;2022-12-29T09:48:25;4.80;;;2.25;;
36211;SDS011;22247;48.586;13.492;2022-12-29T09:50:58;8.05;;;3.20;;
36211;SDS011;22247;48.586;13.492;2022-12-29T09:53:29;5.93;;;2.97;;
36211;SDS011;22247;48.586;13.492;2022-12-29T09:56:01;5.13;;;3.17;;
36211;SDS011;22247;48.586;13.492;2022-12-29T09:58:30;4.03;;;2.15;;
36211;SDS011;22247;48.586;13.492;2022-12-29T10:03:35;5.75;;;2.15;;
36211;SDS011;22247;48.586;13.492;2022-12-29T10:25:11;6.90;;;2.88;;
36211;SDS011;22247;48.586;13.492;2022-12-29T10:27:43;4.57;;;2.15;;
36211;SDS011;22247;48.586;13.492;2022-12-29T10:30:13;5.60;;;1.98;;
36211;SDS011;22247;48.586;13.492;2022-12-29T10:35:18;5.82;;;2.35;;
36211;SDS011;22247;48.586;13.492;2022-12-29T10:42:45;4.25;;;1.80;;
36211;SDS011;22247;48.586;13.492;2022-12-29T10:45:15;5.35;;;1.80;;
36211;SDS011;22247;48.586;13.492;2022-12-29T10:50:44;4.43;;;1.27;;
36211;SDS011;22247;48.586;13.492;2022-12-29T10:53:12;2.85;;;0.95;;
36211;SDS011;22247;48.586;13.492;2022-12-29T10:55:49;3.03;;;1.30;;
36211;SDS011;22247;48.586;13.492;2022-12-29T10:58:16;4.30;;;1.10;;
36211;SDS011;22247;48.586;13.492;2022-12-29T11:00:43;2.47;;;1.20;;
36211;SDS011;22247;48.586;13.492;2022-12-29T11:08:20;4.57;;;1.20;;
36211;SDS011;22247;48.586;13.492;2022-12-29T11:11:04;3.50;;;1.67;;
36211;SDS011;22247;48.586;13.492;2022-12-29T11:13:35;3.95;;;1.27;;
36211;SDS011;22247;48.586;13.492;2022-12-29T11:16:17;4.35;;;1.05;;
36211;SDS011;22247;48.586;13.492;2022-12-29T11:18:57;3.80;;;0.85;;
36211;SDS011;22247;48.586;13.492;2022-12-29T11:21:31;3.15;;;1.20;;
36211;SDS011;22247;48.586;13.492;2022-12-29T11:24:26;4.78;;;1.48;;
36211;SDS011;22247;48.586;13.492;2022-12-29T11:26:54;3.92;;;1.98;;
36211;SDS011;22247;48.586;13.492;2022-12-29T11:29:41;2.17;;;1.15;;
36211;SDS011;22247;48.586;13.492;2022-12-29T11:32:12;15.55;;;4.00;;
36211;SDS011;22247;48.586;13.492;2022-12-29T11:34:43;4.05;;;1.30;;
36211;SDS011;22247;48.586;13.492;2022-12-29T11:40:03;3.17;;;1.35;;
36211;SDS011;22247;48.586;13.492;2022-12-29T11:42:41;2.47;;;1.63;;
36211;SDS011;22247;48.586;13.492;2022-12-29T11:45:16;3.03;;;1.30;;
36211;SDS011;22247;48.586;13.492;2022-12-29T11:47:49;4.97;;;1.58;;
36211;SDS011;22247;48.586;13.492;2022-12-29T11:50:28;4.15;;;1.58;;
36211;SDS011;22247;48.586;13.492;2022-12-29T11:55:38;21.63;;;2.88;;
36211;SDS011;22247;48.586;13.492;2022-12-29T11:58:11;4.32;;;1.13;;
36211;SDS011;22247;48.586;13.492;2022-12-29T12:00:40;3.63;;;1.48;;
36211;SDS011;22247;48.586;13.492;2022-12-29T12:03:11;2.45;;;0.98;;
36211;SDS011;22247;48.586;13.492;2022-12-29T12:05:51;2.17;;;0.95;;
36211;SDS011;22247;48.586;13.492;2022-12-29T12:16:34;4.65;;;0.90;;
36211;SDS011;22247;48.586;13.492;2022-12-29T12:19:32;5.05;;;1.30;;
36211;SDS011;22247;48.586;13.492;2022-12-29T12:25:12;3.10;;;1.05;;
36211;SDS011;22247;48.586;13.492;2022-12-29T12:27:50;2.35;;;1.05;;
36211;SDS011;22247;48.586;13.492;2022-12-29T12:30:35;2.22;;;0.90;;
36211;SDS011;22247;48.586;13.492;2022-12-29T12:35:45;4.22;;;1.83;;
36211;SDS011;22247;48.586;13.492;2022-12-29T12:41:05;3.92;;;1.73;;
36211;SDS011;22247;48.586;13.492;2022-12-29T12:49:49;4.55;;;1.83;;
36211;SDS011;22247;48.586;13.492;2022-12-29T13:00:13;3.28;;;1.00;;
36211;SDS011;22247;48.586;13.492;2022-12-29T13:10:53;4.13;;;2.20;;
36211;SDS011;22247;48.586;13.492;2022-12-29T13:18:37;4.43;;;1.77;;
36211;SDS011;22247;48.586;13.492;2022-12-29T13:21:14;3.85;;;1.50;;
36211;SDS011;22247;48.586;13.492;2022-12-29T13:31:50;7.88;;;3.13;;
36211;SDS011;22247;48.586;13.492;2022-12-29T13:37:04;10.15;;;3.83;;
36211;SDS011;22247;48.586;13.492;2022-12-29T13:39:47;9.90;;;3.80;;
36211;SDS011;22247;48.586;13.492;2022-12-29T13:42:16;19.35;;;7.53;;
36211;SDS011;22247;48.586;13.492;2022-12-29T13:44:45;16.00;;;6.97;;
36211;SDS011;22247;48.586;13.492;2022-12-29T13:49:50;10.90;;;5.43;;
36211;SDS011;22247;48.586;13.492;2022-12-29T14:00:12;3.88;;;2.60;;
36211;SDS011;22247;48.586;13.492;2022-12-29T14:05:31;7.38;;;2.38;;
36211;SDS011;22247;48.586;13.492;2022-12-29T14:08:03;6.03;;;2.72;;
36211;SDS011;22247;48.586;13.492;2022-12-29T14:10:34;3.20;;;1.70;;
36211;SDS011;22247;48.586;13.492;2022-12-29T14:13:17;3.28;;;1.20;;
36211;SDS011;22247;48.586;13.492;2022-12-29T14:15:54;3.50;;;1.30;;
36211;SDS011;22247;48.586;13.492;2022-12-29T14:18:33;4.10;;;1.00;;
36211;SDS011;22247;48.586;13.492;2022-12-29T14:28:43;3.25;;;1.10;;
36211;SDS011;22247;48.586;13.492;2022-12-29T14:44:30;0.88;;;0.47;;
36211;SDS011;22247;48.586;13.492;2022-12-29T14:47:00;2.22;;;0.50;;
36211;SDS011;22247;48.586;13.492;2022-12-29T14:49:31;5.78;;;0.63;;
36211;SDS011;22247;48.586;13.492;2022-12-29T14:52:27;3.85;;;0.50;;
36211;SDS011;22247;48.586;13.492;2022-12-29T14:54:54;1.83;;;0.50;;
36211;SDS011;22247;48.586;13.492;2022-12-29T14:57:29;2.03;;;0.50;;
36211;SDS011;22247;48.586;13.492;2022-12-29T14:59:59;1.98;;;0.45;;
36211;SDS011;22247;48.586;13.492;2022-12-29T15:02:50;0.75;;;0.50;;
36211;SDS011;22247;48.586;13.492;2022-12-29T15:05:47;1.20;;;0.40;;
36211;SDS011;22247;48.586;13.492;2022-12-29T15:08:17;3.03;;;0.40;;
36211;SDS011;22247;48.586;13.492;2022-12-29T15:10:49;1.10;;;0.50;;
36211;SDS011;22247;48.586;13.492;2022-12-29T15:13:21;5.65;;;0.63;;
36211;SDS011;22247;48.586;13.492;2022-12-29T15:15:52;1.40;;;0.40;;
36211;SDS011;22247;48.586;13.492;2022-12-29T15:18:23;1.30;;;0.45;;
36211;SDS011;22247;48.586;13.492;2022-12-29T15:21:05;1.08;;;0.40;;
36211;SDS011;22247;48.586;13.492;2022-12-29T15:23:32;1.30;;;0.43;;
36211;SDS011;22247;48.586;13.492;2022-12-29T15:26:03;1.02;;;0.47;;
36211;SDS011;22247;48.586;13.492;2022-12-29T15:28:51;2.80;;;0.50;;
36211;SDS011;22247;48.586;13.492;2022-12-29T15:31:25;1.90;;;0.50;;
36211;SDS011;22247;48.586;13.492;2022-12-29T15:33:52;2.10;;;0.70;;
36211;SDS011;22247;48.586;13.492;2022-12-29T15:36:29;1.50;;;0.40;;
36211;SDS011;22247;48.586;13.492;2022-12-29T15:39:04;2.35;;;0.35;;
36211;SDS011;22247;48.586;13.492;2022-12-29T15:41:56;1.13;;;0.40;;
36211;SDS011;22247;48.586;13.492;2022-12-29T15:44:39;2.25;;;0.45;;
36211;SDS011;22247;48.586;13.492;2022-12-29T15:47:25;2.28;;;0.77;;
36211;SDS011;22247;48.586;13.492;2022-12-29T15:50:08;1.83;;;0.50;;
36211;SDS011;22247;48.586;13.492;2022-12-29T15:52:46;4.25;;;0.60;;
36211;SDS011;22247;48.586;13.492;2022-12-29T15:55:21;3.78;;;0.98;;
36211;SDS011;22247;48.586;13.492;2022-12-29T15:57:57;3.35;;;1.02;;
36211;SDS011;22247;48.586;13.492;2022-12-29T16:02:59;3.00;;;1.25;;
36211;SDS011;22247;48.586;13.492;2022-12-29T16:05:38;7.43;;;1.83;;
36211;SDS011;22247;48.586;13.492;2022-12-29T16:08:55;3.92;;;1.40;;
36211;SDS011;22247;48.586;13.492;2022-12-29T16:10:57;2.42;;;0.77;;
36211;SDS011;22247;48.586;13.492;2022-12-29T16:13:29;2.72;;;0.93;;
36211;SDS011;22247;48.586;13.492;2022-12-29T16:18:33;1.90;;;0.77;;
36211;SDS011;22247;48.586;13.492;2022-12-29T16:21:03;2.30;;;0.70;;
36211;SDS011;22247;48.586;13.492;2022-12-29T16:23:30;2.45;;;0.60;;
36211;SDS011;22247;48.586;13.492;2022-12-29T16:25:57;2.42;;;0.60;;
36211;SDS011;22247;48.586;13.492;2022-12-29T16:28:35;1.92;;;0.60;;
36211;SDS011;22247;48.586;13.492;2022-12-29T16:31:13;2.72;;;1.00;;
36211;SDS011;22247;48.586;13.492;2022-12-29T16:41:58;3.30;;;0.82;;
36211;SDS011;22247;48.586;13.492;2022-12-29T16:49:34;2.75;;;0.65;;
36211;SDS011;22247;48.586;13.492;2022-12-29T16:55:04;2.03;;;0.55;;
36211;SDS011;22247;48.586;13.492;2022-12-29T16:57:31;3.35;;;0.73;;
36211;SDS011;22247;48.586;13.492;2022-12-29T17:00:03;1.55;;;0.50;;
36211;SDS011;22247;48.586;13.492;2022-12-29T17:02:34;6.50;;;1.13;;
36211;SDS011;22247;48.586;13.492;2022-12-29T17:05:12;1.52;;;0.60;;
36211;SDS011;22247;48.586;13.492;2022-12-29T17:07:39;3.25;;;0.50;;
36211;SDS011;22247;48.586;13.492;2022-12-29T17:10:04;1.52;;;0.50;;
36211;SDS011;22247;48.586;13.492;2022-12-29T17:12:36;0.82;;;0.40;;
36211;SDS011;22247;48.586;13.492;2022-12-29T17:15:06;1.60;;;0.60;;
36211;SDS011;22247;48.586;13.492;2022-12-29T17:17:39;2.15;;;0.60;;
36211;SDS011;22247;48.586;13.492;2022-12-29T17:20:09;1.95;;;0.55;;
36211;SDS011;22247;48.586;13.492;2022-12-29T17:22:45;1.85;;;0.90;;
36211;SDS011;22247;48.586;13.492;2022-12-29T17:25:12;2.65;;;0.75;;
36211;SDS011;22247;48.586;13.492;2022-12-29T17:27:58;2.55;;;0.63;;
36211;SDS011;22247;48.586;13.492;2022-12-29T17:30:28;1.70;;;0.65;;
36211;SDS011;22247;48.586;13.492;2022-12-29T17:33:12;6.00;;;3.05;;
36211;SDS011;22247;48.586;13.492;2022-12-29T17:35:40;6.22;;;3.65;;
36211;SDS011;22247;48.586;13.492;2022-12-29T17:38:39;9.60;;;3.80;;
36211;SDS011;22247;48.586;13.492;2022-12-29T17:41:03;9.65;;;5.40;;
36211;SDS011;22247;48.586;13.492;2022-12-29T17:43:29;8.05;;;4.10;;
36211;SDS011;22247;48.586;13.492;2022-12-29T17:45:56;11.55;;;4.07;;
36211;SDS011;22247;48.586;13.492;2022-12-29T17:48:24;4.65;;;3.42;;
36211;SDS011;22247;48.586;13.492;2022-12-29T17:50:51;6.07;;;3.25;;
36211;SDS011;22247;48.586;13.492;2022-12-29T17:53:22;5.35;;;2.90;;
36211;SDS011;22247;48.586;13.492;2022-12-29T17:55:53;4.00;;;2.00;;
36211;SDS011;22247;48.586;13.492;2022-12-29T17:58:19;3.85;;;1.80;;
36211;SDS011;22247;48.586;13.492;2022-12-29T18:00:47;4.60;;;1.80;;
36211;SDS011;22247;48.586;13.492;2022-12-29T18:03:18;3.38;;;1.98;;
36211;SDS011;22247;48.586;13.492;2022-12-29T18:05:48;4.13;;;1.17;;
36211;SDS011;22247;48.586;13.492;2022-12-29T18:08:17;2.63;;;1.10;;
36211;SDS011;22247;48.586;13.492;2022-12-29T18:10:45;1.88;;;1.38;;
36211;SDS011;22247;48.586;13.492;2022-12-29T18:13:19;3.88;;;1.23;;
36211;SDS011;22247;48.586;13.492;2022-12-29T18:15:48;2.50;;;0.70;;
36211;SDS011;22247;48.586;13.492;2022-12-29T18:18:17;2.03;;;0.88;;
36211;SDS011;22247;48.586;13.492;2022-12-29T18:20:45;3.55;;;1.40;;
36211;SDS011;22247;48.586;13.492;2022-12-29T18:28:25;3.70;;;1.10;;